Pagina principale
METAR-TAF:

METAR-TAF

Aeroporti :

Sion, Svizzera

latitudine: 46-13N, longitudine: 007-20E, altezza: 482 m

Osservazione

Il bollettino è stato emesso 22 minuti fa, alle 05:20 UTC
Vento calmo
Temperature 1°C
Umidità 100%
Pressione 1010 hPa
Visibilità: 3300 m
foschia

METAR: LSGS 180520Z AUTO 00000KT 3300 BR NCD 01/01 Q1010

Ora: 06:42 (05:42 UTC)

Previsione

Il bollettino è stato emesso 17 minuti fa, alle 05:25 UTC
Previsione valida dal 18 alle 06 UTC al 18 alle 15 UTC
Vento 3 kt da direzioni variabili
Visibilità: 7000 m
Nubi sparse ad un'altezza di 3000 ft
Nuvoloso ad un'altezza di 7000 ft
Evoluzione graduale
dal 18 alle 08 UTC al 18 alle 11 UTC
Nubi sparse ad un'altezza di 10000 ft

TAF: LSGS 180525Z 1806/1815 VRB03KT 7000 SCT030 BKN070 BECMG 1808/1811 SCT100

Osservazioni e previsioni meteorologiche di più di 4000 aeroporti (messaggi METAR e TAF).

Le stazioni disponibili sono rappresentate dai dischi gialli e rossi sulla carta.

Puntare il mouse per vedere il nome della stazione.

Clicca sopra per visualizzare le osservazioni e previsioni meteorologiche.

Per cambiare la mappa : fare clic sui pulsanti verdi con una croce nera per ingrandire, il pulsante verde con un trattino per diminuire, o sulla freccia verde per le mappe adiacenti.


METAR-TAF: